Las Vegas, NM

6:21 AM MDT en Julio 28, 2014 (GMT -0600)
Angel Fire (KAXX) Alt 8379 ft | 36.42 °N, 105.29 °W | Change Station
Aviso en curso: Flash Flood Watch

Current weather conditions updated 6 minutes ago

Clear
Despejado
50 ° F
Sensación térmica 50 ° F
N
0
Viento Variable Viento desde Norte

Hoy se prevé un día Más cálido que ayer. Cielo parcialmente cubierto, probabilidad de tormenta..

Hoy
Alta -- | Baja -- ° F
--% Posibilidad de precipitaciones
Ayer
Alta -- | Baja -- ° F
Precip. -- pul
6:05 AM 8:08 PM
Luna nueva, 2% visible
Presión 30.60 pul
Visibilidad 10.0 Millas
Nubes Despejado
Punto de rocío 49 ° F
Humedad 95%
Precipitaciones 0.41 pul
Espesor de la nieve No disponible.
UV 0 de una escala de 12
Polen 4.30 de una escala de 12
Calidad del aire No disponible.
Flu Activity No disponible.
METAR KAXX 281215Z AUTO 00000KT 10SM CLR 10/09 A3060 RMK AO2 T00990092

More Conditions Fewer Conditions

Presión 30.60 pul
Visibilidad 10.0 Millas
Nubes Despejado
Punto de rocío 49 ° F
Humedad 95%
Precipitaciones 0.41 pul
Espesor de la nieve No disponible.
UV 0 de una escala de 12
Polen 4.30 de una escala de 12
Calidad del aire No disponible.
Flu Activity No disponible.
METAR KAXX 281215Z AUTO 00000KT 10SM CLR 10/09 A3060 RMK AO2 T00990092

More Conditions Fewer Conditions

10-Day Weather Forecast

Almanac

Astronomía

Jul. 28, 2014 Salida Puesta
Hora real 6:05 AM MDT 8:08 PM MDT
Crepúsculo civil 5:37 AM MDT 8:36 PM MDT
Crepúsculo náutico 5:03 AM MDT 9:10 PM MDT
Crepúsculo astronómico 4:25 AM MDT 9:47 PM MDT
Luna 7:44 AM MDT 8:57 PM MDT
Horas de luz 14h 58m
Horas de luz
14h 02m
Tomorrow will be 1m 36s shorter.
Luna nueva, 2% of the Moon is Illuminated
Hoy
Luna nueva
Ago 3
Cuarto creciente
Ago 10
Luna llena
Ago 17
Cuarto menguante
Ago 25
Nueva

Extremos de hoy

Máximos del estado Bajos del estado

Community

WunderPhotos

Upload Photos

1,738,311 ¡fotos cargadas!

Nearby

Grosos de nieve

Estación Profundido Altura
Wesner Springs 2 in 11120 ft
Gallegos Peak 1 in 9800 ft
Tolby 0 in 10180 ft
Red River Pass #2 0 in 9850 ft
Bateman 0 in 9300 ft

Actividad de terremotos

Ciudad Distance Mag. Tiempo y dato
No hay informes recientes de la actividad sísmica.
Magnitud mínima muestra es 2,5.

Temperaturas de aguas costeras

Lugar Temperatura
Sin partes meteorológicos de las estaciones

Estaciones meteorológicas cercanas

Ubicación de la estación Temp. Punto de rocío Humedad Viento Precip. Alt Actualizado Tipo
San Geronimo, Las Vegas, NM 53.4 ° F 53 ° F 99% ONO  a  0.7 mph 0.00 pul / hr 6778 ft 6:21 AM MDT Rapid Fire
Ilfeld, NM 56.5 ° F 55 ° F 95% Este  a  0.0 mph 0.00 pul / hr 6447 ft 6:21 AM MDT Rapid Fire
Pendaries RV Resort, Rociada, NM 51.0 ° F 50 ° F 96% ONO  a  0.0 mph 0.00 pul / hr 7750 ft 6:21 AM MDT Rapid Fire

Show More Stations Show Fewer Stations